Ministro Pistarini International Airport
SAEZ : now visible

Airfield :











YOU CAN JOIN US ON...

 
LOGIN :

Register | Disclaimer

   EN    FR    IT 

 









Legend :    VFR   Marginal VFR   IFR   Intensive IFR   Very Intensive IFR
Visi :
Ceiling :
>= 8 km
>= 3000ft
5 to 8 km
1000 to 3000 ft
1500m to 5 km
500 to 1000 ft
800 to 1500m
200 to 500 ft
< 800m
< 200 ft
Symbols :   Thunderstorms  Fog  Heavy snow  Heavy precipitations  Wind > 20 kt






- Airport Elevation : 67 ft
- IATA code : EZE


SAEZ - Ministro Pistarini International

CURRENT METAR :
  • 222000Z 07007KT 9000 -RA OVC012 16/15 Q1017 NOSIG

EXPIRED METARs :
  • 221938Z 08008KT 8000 -RA OVC012 16/15 Q1017 NOSIG
  • 221900Z 09006KT 9999 OVC012 16/15 Q1018 NOSIG
  • 221800Z 08010KT 9999 OVC011 16/14 Q1018 NOSIG

TAF TAF SAEZ
Valid from the 22 at 18:00 until the 23 at 18:00 UTC


221700Z 2218/2318 07010G20KT 8000 -RA SCT010 BKN020 TX24/2318Z TN14/2309Z
BECMG 2219/2221 9999 BKN030
BECMG 2300/2303 8000 -RA OVC008
PROB30
TEMPO 2306/2312 14005KT 0500 FG OVC003
BECMG 2314/2316 5000 BR SCT010 OVC020
SAEF FIR / South America



MET'MAP, your aeronautical weather chart ! - Copyright ORBIFLY December 2007 - Disclaimer

ORBIFLY MET'MAP TEAM :

Programming & Development : Alexandra Zaïnal
Concept & original design : Baudouin d'Aumeries
Assistance for programming : Marc-Olivier Méhu
Technical & hardware support : Manuel Goepfert

Contact : metmap@orbifly.com




SOURCES & CREDITS :

   NOAA       Earth
Advisory